Time;durP1;ratioP1;P1;durP2;ratioP2;P2;SDS_P1;SDS_P2;PMS_P1;PMS_P2;Temp;Humidity;BMP_temperature;BMP_pressure;BME280_temperature;BME280_humidity;BME280_pressure;Samples;Min_cycle;Max_cycle;Signal;HPM_P1;HPM_P2
2023/10/28 00:00:08;;;;;;;0.00;0.00;;;;;;;-0.30;95.90;98149.69;5043879;28;20053;-77
2023/10/28 00:02:34;;;;;;;0.10;0.10;;;;;;;-0.32;95.82;98149.09;5043628;28;20068;-77
2023/10/28 00:05:02;;;;;;;0.00;0.00;;;;;;;-0.31;95.75;98146.19;5044622;28;20049;-77
2023/10/28 00:07:30;;;;;;;0.10;0.10;;;;;;;-0.31;95.55;98143.50;5040394;28;20060;-77
2023/10/28 00:09:56;;;;;;;0.00;0.00;;;;;;;-0.34;95.45;98137.78;5043453;28;20048;-77
2023/10/28 00:12:22;;;;;;;0.00;0.00;;;;;;;-0.35;95.68;98136.16;5043179;28;20424;-76
2023/10/28 00:14:49;;;;;;;0.08;0.08;;;;;;;-0.27;96.25;98125.03;5026273;28;20071;-77
2023/10/28 00:17:16;;;;;;;0.00;0.00;;;;;;;-0.24;96.45;98127.22;5047294;28;20060;-75
2023/10/28 00:19:43;;;;;;;0.00;0.00;;;;;;;-0.17;96.66;98132.41;5031935;28;20420;-77
2023/10/28 00:22:10;;;;;;;0.05;0.05;;;;;;;-0.13;96.17;98136.22;5048541;28;20613;-77
2023/10/28 00:24:36;;;;;;;;;;;;;;;-0.13;96.25;98125.50;5042673;28;20083;-76
2023/10/28 00:27:03;;;;;;;0.10;0.10;;;;;;;-0.16;95.81;98123.28;5063548;28;19952;-77
2023/10/28 00:29:29;;;;;;;0.00;0.00;;;;;;;-0.18;95.80;98118.16;5044463;28;20048;-76
2023/10/28 00:31:56;;;;;;;0.00;0.00;;;;;;;-0.11;96.20;98117.19;5044265;28;20473;-74
2023/10/28 00:34:22;;;;;;;0.00;0.00;;;;;;;-0.12;96.39;98123.63;5053875;28;20098;-74
2023/10/28 00:36:48;;;;;;;0.00;0.00;;;;;;;-0.06;96.41;98123.47;5048273;28;20067;-76
2023/10/28 00:39:16;;;;;;;0.10;0.10;;;;;;;-0.08;95.98;98119.38;5049968;28;20057;-77
2023/10/28 00:41:43;;;;;;;0.00;0.00;;;;;;;-0.19;95.59;98121.09;5040852;28;20095;-76
2023/10/28 00:44:09;;;;;;;0.00;0.00;;;;;;;-0.27;95.54;98130.41;5043166;28;20149;-77
2023/10/28 00:46:36;;;;;;;0.10;0.10;;;;;;;-0.32;95.67;98127.59;5044201;28;20041;-76
2023/10/28 00:49:03;;;;;;;0.00;0.00;;;;;;;-0.33;95.63;98120.59;5050262;28;20111;-76
2023/10/28 00:51:29;;;;;;;0.10;0.10;;;;;;;-0.30;96.13;98120.13;5045200;28;20107;-76
2023/10/28 00:53:55;;;;;;;0.00;0.00;;;;;;;-0.17;96.58;98127.84;5047910;28;20102;-77
2023/10/28 00:56:23;;;;;;;0.10;0.10;;;;;;;-0.13;96.30;98125.50;5042084;28;20052;-76
2023/10/28 00:58:51;;;;;;;;;;;;;;;-0.13;96.09;98117.44;5043647;28;20049;-77
2023/10/28 01:01:17;;;;;;;;;;;;;;;-0.15;95.55;98106.94;5058924;28;20484;-76
2023/10/28 01:03:44;;;;;;;0.10;0.10;;;;;;;-0.15;95.41;98098.88;5030422;28;19971;-76
2023/10/28 01:06:10;;;;;;;0.10;0.10;;;;;;;-0.12;95.36;98097.56;5041987;28;20037;-77
2023/10/28 01:08:36;;;;;;;0.10;0.10;;;;;;;-0.23;95.00;98088.53;5018505;28;20107;-77
2023/10/28 01:11:03;;;;;;;0.10;0.10;;;;;;;-0.29;95.08;98090.34;5050193;28;20053;-77
2023/10/28 01:13:30;;;;;;;0.10;0.10;;;;;;;-0.35;94.68;98096.69;5050895;28;20060;-77
2023/10/28 01:15:59;;;;;;;0.10;0.10;;;;;;;-0.36;94.94;98096.94;5044634;28;20049;-77
2023/10/28 01:18:26;;;;;;;0.00;0.00;;;;;;;-0.35;95.41;98101.25;5046436;28;20150;-77
2023/10/28 01:20:52;;;;;;;0.00;0.00;;;;;;;-0.27;95.43;98106.22;5043600;28;20060;-77
2023/10/28 01:23:19;;;;;;;0.10;0.10;;;;;;;-0.28;95.62;98107.28;5044348;28;20136;-77
2023/10/28 01:25:45;;;;;;;;;;;;;;;-0.31;95.46;98103.19;5044250;28;20037;-78
2023/10/28 01:28:13;;;;;;;0.10;0.10;;;;;;;-0.27;95.56;98100.00;5049820;28;19909;-75
2023/10/28 01:30:39;;;;;;;0.10;0.10;;;;;;;-0.23;95.33;98095.81;5042659;28;20047;-77
2023/10/28 01:33:05;;;;;;;0.00;0.00;;;;;;;-0.26;95.29;98097.09;5026434;28;20049;-77
2023/10/28 01:35:32;;;;;;;0.10;0.10;;;;;;;-0.31;95.55;98103.19;5046590;28;20072;-75
2023/10/28 01:37:58;;;;;;;0.00;0.00;;;;;;;-0.31;95.59;98100.50;5029160;28;20048;-75
2023/10/28 01:40:26;;;;;;;0.10;0.10;;;;;;;-0.40;95.48;98087.75;5045054;28;20056;-74
2023/10/28 01:42:52;;;;;;;0.00;0.00;;;;;;;-0.41;95.60;98091.50;5047783;28;20064;-74
2023/10/28 01:45:18;;;;;;;0.10;0.10;;;;;;;-0.40;95.54;98088.53;5030610;28;20139;-75
2023/10/28 01:47:44;;;;;;;0.00;0.00;;;;;;;-0.37;95.75;98085.38;5050182;28;20281;-74
2023/10/28 01:50:12;;;;;;;0.10;0.10;;;;;;;-0.30;96.20;98087.91;5047562;28;20044;-74
2023/10/28 01:52:39;;;;;;;0.10;0.10;;;;;;;-0.26;96.29;98082.84;5044702;28;20053;-74
2023/10/28 01:55:07;;;;;;;0.10;0.10;;;;;;;-0.22;96.60;98084.00;5044429;28;20052;-74
2023/10/28 01:57:35;;;;;;;0.10;0.10;;;;;;;-0.26;96.51;98067.53;5047217;28;20056;-74
2023/10/28 02:00:06;;;;;;;0.10;0.10;;;;;;;-0.28;96.27;98069.66;5042518;28;20044;-74
2023/10/28 02:02:36;;;;;;;0.10;0.10;;;;;;;-0.34;96.31;98070.63;5045123;28;20130;-74
2023/10/28 02:05:03;;;;;;;0.10;0.10;;;;;;;-0.39;96.15;98066.03;5046956;28;20056;-74
2023/10/28 02:07:33;;;;;;;0.10;0.10;;;;;;;-0.40;96.36;98074.31;5026482;28;20064;-74
2023/10/28 02:09:59;;;;;;;0.10;0.10;;;;;;;-0.39;96.49;98073.25;5045020;28;20049;-74
2023/10/28 02:12:26;;;;;;;0.00;0.00;;;;;;;-0.53;96.28;98048.63;5052810;28;20095;-74
2023/10/28 02:14:54;;;;;;;0.10;0.10;;;;;;;-0.33;96.54;98070.41;5047533;28;20621;-74
2023/10/28 02:17:19;;;;;;;;;;;;;;;-0.29;96.39;98074.22;5050770;28;20651;-74
2023/10/28 02:19:46;;;;;;;0.10;0.10;;;;;;;-0.31;96.02;98065.59;5046937;28;19924;-74
2023/10/28 02:22:13;;;;;;;0.10;0.10;;;;;;;-0.29;95.84;98057.31;5033932;28;20049;-74
2023/10/28 02:24:42;;;;;;;0.10;0.10;;;;;;;-0.38;95.09;98050.69;5034436;28;20119;-75
2023/10/28 02:27:09;;;;;;;0.10;0.10;;;;;;;-0.37;95.24;98046.97;5024624;28;20072;-74
2023/10/28 02:29:37;;;;;;;0.10;0.10;;;;;;;-0.34;95.43;98054.53;5043616;28;20049;-74
2023/10/28 02:32:08;;;;;;;0.10;0.10;;;;;;;-0.31;95.73;98044.09;5049384;28;20053;-74
2023/10/28 02:34:35;;;;;;;0.10;0.10;;;;;;;-0.33;95.95;98045.41;5042344;28;20118;-74
2023/10/28 02:37:01;;;;;;;0.00;0.00;;;;;;;-0.29;95.77;98049.25;5043070;28;20048;-75
2023/10/28 02:39:30;;;;;;;0.00;0.00;;;;;;;-0.30;95.87;98045.72;5028987;28;20102;-74
2023/10/28 02:41:56;;;;;;;0.10;0.10;;;;;;;-0.26;96.20;98054.13;5043406;28;20048;-74
2023/10/28 02:44:22;;;;;;;0.10;0.10;;;;;;;-0.28;96.47;98053.56;5045320;28;20527;-74
2023/10/28 02:46:48;;;;;;;0.00;0.00;;;;;;;-0.23;96.35;98047.44;5055978;28;20040;-74
2023/10/28 02:49:17;;;;;;;0.10;0.10;;;;;;;-0.17;96.55;98043.75;5043224;28;20057;-75
2023/10/28 02:51:44;;;;;;;0.10;0.10;;;;;;;-0.13;95.91;98047.56;5028481;28;20049;-74
2023/10/28 02:54:10;;;;;;;0.10;0.10;;;;;;;-0.24;95.58;98048.47;5029910;28;20479;-75
2023/10/28 02:56:36;;;;;;;0.00;0.00;;;;;;;-0.38;95.76;98043.47;5044950;28;20423;-74
2023/10/28 02:59:05;;;;;;;0.00;0.00;;;;;;;-0.32;95.94;98037.09;5027563;28;20055;-75
2023/10/28 03:01:31;;;;;;;0.00;0.00;;;;;;;-0.31;95.72;98037.94;5038356;28;20567;-75
2023/10/28 03:03:58;;;;;;;0.10;0.10;;;;;;;-0.38;95.74;98038.09;5039074;28;20564;-75
2023/10/28 03:06:26;;;;;;;0.10;0.10;;;;;;;-0.24;96.24;98040.41;5048841;28;20045;-75
2023/10/28 03:08:52;;;;;;;;;;;;;;;-0.21;96.16;98040.75;5048242;28;20072;-75
2023/10/28 03:11:18;;;;;;;0.00;0.00;;;;;;;-0.22;96.23;98032.94;5046226;28;19935;-75
2023/10/28 03:13:44;;;;;;;0.10;0.10;;;;;;;-0.23;96.19;98023.28;5029270;28;20041;-74
2023/10/28 03:16:10;;;;;;;0.10;0.10;;;;;;;-0.19;96.39;98019.00;5041861;28;20060;-76
2023/10/28 03:18:37;;;;;;;0.10;0.10;;;;;;;-0.20;96.49;98015.50;5046412;28;20261;-76
2023/10/28 03:21:04;;;;;;;0.05;0.05;;;;;;;-0.12;96.46;98013.47;5045703;28;20136;-76
2023/10/28 03:23:32;;;;;;;0.10;0.10;;;;;;;-0.21;96.55;98005.81;5049141;28;20480;-76
2023/10/28 03:25:57;;;;;;;;;;;;;;;-0.20;96.82;98003.97;5045053;28;20135;-75
2023/10/28 03:28:24;;;;;;;0.10;0.10;;;;;;;-0.17;96.95;97996.19;5043496;28;20426;-74
2023/10/28 03:30:50;;;;;;;0.10;0.10;;;;;;;-0.18;96.73;97991.88;5041733;28;20037;-75
2023/10/28 03:33:17;;;;;;;0.05;0.05;;;;;;;-0.23;96.50;97986.47;5042631;28;20118;-74
2023/10/28 03:35:44;;;;;;;;;;;;;;;-0.25;96.70;97983.22;5025909;28;20083;-75
2023/10/28 03:38:10;;;;;;;0.03;0.03;;;;;;;-0.34;96.81;97976.63;5023557;28;19928;-74
2023/10/28 03:40:39;;;;;;;0.10;0.10;;;;;;;-0.25;96.85;97985.06;5040964;28;20045;-74
2023/10/28 03:43:06;;;;;;;0.10;0.10;;;;;;;-0.29;96.69;97972.13;5043732;28;20049;-74
2023/10/28 03:45:32;;;;;;;0.10;0.10;;;;;;;-0.32;96.25;97980.69;5041907;28;20037;-74
2023/10/28 03:47:58;;;;;;;0.00;0.00;;;;;;;-0.33;96.63;97972.88;5044306;28;20057;-73
2023/10/28 03:50:24;;;;;;;0.00;0.00;;;;;;;-0.23;96.71;97978.41;5039737;28;20041;-74
2023/10/28 03:52:51;;;;;;;0.00;0.00;;;;;;;-0.21;96.77;97978.97;5041476;28;20041;-74
2023/10/28 03:55:17;;;;;;;0.10;0.10;;;;;;;-0.09;97.16;97986.09;5041226;28;20107;-74
2023/10/28 03:57:45;;;;;;;0.00;0.00;;;;;;;-0.11;96.64;97983.63;5024092;28;20582;-74
2023/10/28 04:00:13;;;;;;;0.10;0.10;;;;;;;-0.11;96.76;97983.63;5041472;28;20053;-74
2023/10/28 04:02:39;;;;;;;0.10;0.10;;;;;;;-0.11;96.60;97967.53;5046534;28;20128;-74
2023/10/28 04:05:06;;;;;;;0.10;0.10;;;;;;;-0.18;96.58;97970.38;5037967;28;20045;-74
2023/10/28 04:07:32;;;;;;;0.10;0.10;;;;;;;-0.12;97.08;97965.91;5020063;28;20079;-74
2023/10/28 04:10:04;;;;;;;0.10;0.10;;;;;;;-0.09;96.98;97964.59;5036453;28;20052;-74
2023/10/28 04:12:32;;;;;;;0.10;0.10;;;;;;;-0.13;96.99;97950.03;5042059;28;20045;-75
2023/10/28 04:15:00;;;;;;;0.10;0.10;;;;;;;-0.02;96.91;97954.47;5058476;28;20064;-74
2023/10/28 04:17:30;;;;;;;0.10;0.10;;;;;;;0.03;97.08;97953.72;5022273;28;20045;-74
2023/10/28 04:19:57;;;;;;;0.00;0.00;;;;;;;0.00;96.85;97936.22;5021696;28;20056;-74
2023/10/28 04:22:24;;;;;;;0.10;0.10;;;;;;;0.00;97.40;97949.66;5039987;28;20110;-74
2023/10/28 04:24:51;;;;;;;0.10;0.10;;;;;;;0.00;97.40;97955.03;5023620;28;20064;-74
2023/10/28 04:27:17;;;;;;;0.10;0.10;;;;;;;0.06;97.54;97947.81;5040049;28;20512;-74
2023/10/28 04:29:44;;;;;;;0.00;0.00;;;;;;;0.06;97.37;97945.16;5038361;28;20037;-74
2023/10/28 04:32:12;;;;;;;0.10;0.10;;;;;;;0.04;97.57;97953.47;5040873;28;20516;-74
2023/10/28 04:34:39;;;;;;;0.10;0.10;;;;;;;0.01;97.65;97948.59;5039588;28;20431;-74
2023/10/28 04:37:06;;;;;;;0.00;0.00;;;;;;;-0.06;96.82;97947.97;5027411;28;20065;-74
2023/10/28 04:39:32;;;;;;;0.08;0.08;;;;;;;-0.06;96.51;97945.28;5047024;28;20494;-74
2023/10/28 04:41:59;;;;;;;0.10;0.10;;;;;;;-0.07;96.59;97946.34;5044449;28;20501;-74
2023/10/28 04:44:25;;;;;;;0.10;0.10;;;;;;;0.02;96.75;97942.16;5027978;28;20053;-74
2023/10/28 04:46:51;;;;;;;0.10;0.10;;;;;;;-0.04;96.57;97925.16;5012713;28;20049;-74
2023/10/28 04:49:19;;;;;;;0.00;0.00;;;;;;;0.06;96.09;97939.75;5042524;28;20530;-75
2023/10/28 04:51:45;;;;;;;;;;;;;;;0.00;95.92;97936.22;5048341;28;20052;-76
2023/10/28 04:54:11;;;;;;;0.10;0.10;;;;;;;0.02;96.17;97936.78;5042821;28;20393;-75
2023/10/28 04:56:37;;;;;;;0.10;0.10;;;;;;;0.05;96.01;97924.72;5044829;28;20094;-75
2023/10/28 04:59:03;;;;;;;0.10;0.10;;;;;;;0.06;95.96;97921.78;5070901;28;20636;-75
2023/10/28 05:01:30;;;;;;;0.10;0.10;;;;;;;-0.05;95.59;97914.66;5047871;28;20041;-76
2023/10/28 05:03:56;;;;;;;0.10;0.10;;;;;;;-0.03;95.74;97915.22;5043364;28;20049;-75
2023/10/28 05:06:24;;;;;;;0.00;0.00;;;;;;;0.05;95.90;97912.09;5040323;28;20136;-75
2023/10/28 05:08:50;;;;;;;0.10;0.10;;;;;;;-0.04;95.59;97905.53;5048214;28;20075;-76
2023/10/28 05:11:16;;;;;;;0.00;0.00;;;;;;;-0.03;96.07;97905.28;5025647;28;20069;-75
2023/10/28 05:13:43;;;;;;;0.10;0.10;;;;;;;-0.07;95.57;97897.97;5052321;28;20040;-75
2023/10/28 05:16:13;;;;;;;0.10;0.10;;;;;;;-0.03;96.05;97901.78;5017286;28;20144;-77
2023/10/28 05:18:39;;;;;;;0.05;0.05;;;;;;;0.03;95.95;97902.66;5046878;28;20522;-76
2023/10/28 05:21:06;;;;;;;0.00;0.00;;;;;;;0.02;95.44;97898.34;5045976;28;20080;-76
2023/10/28 05:23:34;;;;;;;0.10;0.10;;;;;;;0.13;95.50;97898.19;5045541;28;20090;-76
2023/10/28 05:26:00;;;;;;;0.10;0.10;;;;;;;0.19;95.42;97888.31;5045329;28;20087;-75
2023/10/28 05:28:26;;;;;;;0.00;0.00;;;;;;;0.20;94.91;97897.19;5032279;28;20102;-77
2023/10/28 05:30:52;;;;;;;0.00;0.00;;;;;;;0.05;94.27;97900.53;5050687;28;20072;-76
2023/10/28 05:33:20;;;;;;;0.10;0.10;;;;;;;-0.05;94.37;97899.38;5047931;28;20049;-77
2023/10/28 05:35:46;;;;;;;0.10;0.10;;;;;;;-0.02;94.90;97895.34;5043233;28;20048;-75
2023/10/28 05:38:12;;;;;;;0.10;0.10;;;;;;;0.03;95.40;97889.22;5043175;28;20052;-76
2023/10/28 05:40:40;;;;;;;0.00;0.00;;;;;;;0.08;95.34;97879.34;5049441;28;20060;-75
2023/10/28 05:43:06;;;;;;;0.00;0.00;;;;;;;0.12;95.04;97869.69;5032690;28;20067;-76
2023/10/28 05:45:32;;;;;;;0.00;0.00;;;;;;;0.12;94.90;97866.22;5034161;28;20063;-77
2023/10/28 05:47:58;;;;;;;0.05;0.05;;;;;;;0.16;95.09;97861.13;5039306;28;20394;-76
2023/10/28 05:50:27;;;;;;;0.10;0.10;;;;;;;0.17;95.39;97858.19;5039040;28;20041;-77
2023/10/28 05:52:54;;;;;;;0.10;0.10;;;;;;;0.13;95.24;97860.56;5044738;28;20049;-73
2023/10/28 05:55:22;;;;;;;0.00;0.00;;;;;;;0.17;95.25;97863.56;5046258;28;20099;-73
2023/10/28 05:57:49;;;;;;;0.10;0.10;;;;;;;0.21;95.22;97853.13;5048365;28;20086;-72
2023/10/28 06:00:16;;;;;;;0.10;0.10;;;;;;;0.27;95.21;97857.47;5043626;28;20067;-77
2023/10/28 06:02:42;;;;;;;0.10;0.10;;;;;;;0.25;94.73;97852.34;5040861;28;20069;-77
2023/10/28 06:05:09;;;;;;;0.00;0.00;;;;;;;0.23;94.36;97845.59;5047182;28;20079;-77
2023/10/28 06:07:35;;;;;;;0.10;0.10;;;;;;;0.15;94.16;97846.88;5047082;28;20053;-71
2023/10/28 06:10:01;;;;;;;0.10;0.10;;;;;;;0.10;93.99;97850.31;5044873;28;20583;-72
2023/10/28 06:12:30;;;;;;;0.00;0.00;;;;;;;0.12;94.02;97848.19;5045271;28;20079;-72
2023/10/28 06:14:58;;;;;;;0.10;0.10;;;;;;;0.17;94.25;97847.44;5043390;28;20041;-72
2023/10/28 06:17:24;;;;;;;;;;;;;;;0.15;93.74;97846.88;5034699;28;20155;-72
2023/10/28 06:19:51;;;;;;;0.10;0.10;;;;;;;0.09;93.39;97839.84;5031079;28;19932;-72
2023/10/28 06:22:18;;;;;;;0.10;0.10;;;;;;;0.06;93.37;97837.63;5036141;28;20142;-72
2023/10/28 06:24:44;;;;;;;0.10;0.10;;;;;;;0.02;93.58;97834.66;5026934;28;20088;-72
2023/10/28 06:27:10;;;;;;;0.10;0.10;;;;;;;0.10;93.73;97834.19;5021212;28;20045;-71
2023/10/28 06:29:37;;;;;;;0.10;0.10;;;;;;;0.15;93.59;97841.50;5025693;28;20097;-72
2023/10/28 06:32:06;;;;;;;0.10;0.10;;;;;;;0.25;93.59;97838.09;5033613;28;20044;-72
2023/10/28 06:34:33;;;;;;;0.10;0.10;;;;;;;0.33;93.51;97829.56;5003834;28;20048;-72
2023/10/28 06:37:00;;;;;;;0.10;0.10;;;;;;;0.41;93.41;97820.22;5031932;28;20852;-76
2023/10/28 06:39:26;;;;;;;0.00;0.00;;;;;;;0.46;93.11;97828.31;5038621;28;20072;-77
2023/10/28 06:41:53;;;;;;;0.10;0.10;;;;;;;0.46;93.23;97827.50;5042627;28;20055;-77
2023/10/28 06:44:24;;;;;;;0.10;0.10;;;;;;;0.43;92.88;97823.47;5031257;28;20123;-76
2023/10/28 06:46:50;;;;;;;0.10;0.10;;;;;;;0.44;92.90;97817.03;5046414;28;20527;-75
2023/10/28 06:49:18;;;;;;;0.08;0.08;;;;;;;0.49;92.92;97814.34;5047513;28;20535;-75
2023/10/28 06:51:44;;;;;;;;;;;;;;;0.53;92.20;97809.28;5040626;28;20044;-75
2023/10/28 06:54:10;;;;;;;0.10;0.10;;;;;;;0.54;91.80;97818.97;5047935;28;20023;-76
2023/10/28 06:56:37;;;;;;;0.10;0.10;;;;;;;0.50;91.41;97799.06;5046744;28;20052;-76
2023/10/28 06:59:04;;;;;;;0.10;0.10;;;;;;;0.55;91.10;97807.16;5025648;28;20139;-75
2023/10/28 07:01:32;;;;;;;0.10;0.10;;;;;;;0.55;91.07;97802.59;5047010;28;20102;-76
2023/10/28 07:03:58;;;;;;;0.10;0.10;;;;;;;0.63;90.97;97798.59;5053213;28;20139;-76
2023/10/28 07:06:26;;;;;;;0.10;0.10;;;;;;;0.74;91.41;97795.97;5046841;28;20045;-76
2023/10/28 07:08:52;;;;;;;;;;;;;;;0.81;91.04;97801.94;5043488;28;20083;-71
2023/10/28 07:11:18;;;;;;;0.10;0.10;;;;;;;0.77;91.24;97800.81;5048053;28;19955;-72
2023/10/28 07:13:45;;;;;;;0.10;0.10;;;;;;;0.72;90.52;97801.63;5047474;28;20576;-72
2023/10/28 07:16:11;;;;;;;0.05;0.05;;;;;;;0.77;90.58;97798.13;5053061;28;20063;-72
2023/10/28 07:18:37;;;;;;;0.10;0.10;;;;;;;0.77;90.85;97798.13;5046490;28;20511;-72
2023/10/28 07:21:04;;;;;;;0.10;0.10;;;;;;;0.82;91.28;97784.72;5044959;28;20526;-72
2023/10/28 07:23:31;;;;;;;0.10;0.10;;;;;;;0.81;91.34;97773.16;5045783;28;20126;-72
2023/10/28 07:26:01;;;;;;;0.10;0.10;;;;;;;0.96;91.59;97777.00;5044568;28;20044;-72
2023/10/28 07:28:33;;;;;;;0.10;0.10;;;;;;;1.02;91.67;97783.22;5046283;28;20048;-72
2023/10/28 07:31:01;;;;;;;0.10;0.10;;;;;;;0.87;91.31;97782.06;5015359;28;20083;-73
2023/10/28 07:33:27;;;;;;;;;;;;;;;0.92;91.96;97771.31;5050091;28;20591;-72
2023/10/28 07:35:54;;;;;;;0.10;0.10;;;;;;;0.85;92.10;97763.47;5054008;28;19925;-73
2023/10/28 07:38:20;;;;;;;0.10;0.10;;;;;;;0.94;91.80;97771.06;5049372;28;20076;-72
2023/10/28 07:40:49;;;;;;;0.10;0.10;;;;;;;1.00;92.05;97778.06;5045734;28;20575;-72
2023/10/28 07:43:19;;;;;;;0.10;0.10;;;;;;;0.98;91.87;97772.16;5045732;28;20056;-72
2023/10/28 07:45:46;;;;;;;0.10;0.10;;;;;;;0.93;92.19;97769.44;5047136;28;20075;-72
2023/10/28 07:48:13;;;;;;;0.00;0.00;;;;;;;0.94;91.95;97766.50;5041991;28;20057;-76
2023/10/28 07:50:41;;;;;;;0.95;0.25;;;;;;;0.89;91.83;97763.75;5052837;28;20107;-76
2023/10/28 07:53:08;;;;;;;0.10;0.10;;;;;;;0.97;92.15;97759.75;5045524;28;20048;-71
2023/10/28 07:55:37;;;;;;;0.10;0.10;;;;;;;1.07;91.59;97769.78;5043166;28;20534;-71
2023/10/28 07:58:05;;;;;;;0.10;0.10;;;;;;;0.98;91.44;97750.63;5049040;28;20460;-72
2023/10/28 08:33:54;;;;;;;0.10;0.10;;;;;;;0.52;86.93;97737.75;5117425;27;20223;-71
2023/10/28 08:36:20;;;;;;;0.10;0.10;;;;;;;0.64;89.55;97742.91;5105387;27;20058;-72
2023/10/28 08:38:49;;;;;;;0.05;0.05;;;;;;;0.70;90.29;97736.47;5088387;28;20040;-71
2023/10/28 08:41:21;;;;;;;0.10;0.10;;;;;;;0.80;90.79;97741.94;5103014;28;20035;-72
2023/10/28 08:43:48;;;;;;;0.10;0.10;;;;;;;0.91;91.01;97742.78;5098668;28;20074;-77
2023/10/28 08:46:16;;;;;;;0.10;0.10;;;;;;;0.95;90.60;97740.38;5098070;28;20079;-77
2023/10/28 08:48:43;;;;;;;0.00;0.00;;;;;;;0.93;89.82;97727.19;5086116;28;20051;-78
2023/10/28 08:51:14;;;;;;;0.10;0.10;;;;;;;0.96;90.21;97728.53;5098934;28;20587;-78
2023/10/28 08:53:45;;;;;;;0.10;0.10;;;;;;;1.01;90.25;97722.38;5101602;28;20048;-74
2023/10/28 08:56:16;;;;;;;0.10;0.10;;;;;;;1.07;89.91;97719.44;5099217;28;20058;-72
2023/10/28 08:58:45;;;;;;;0.10;0.10;;;;;;;1.04;89.56;97709.22;5097807;27;20039;-73
2023/10/28 09:01:11;;;;;;;0.00;0.00;;;;;;;1.13;89.65;97707.63;5096468;28;20051;-72
2023/10/28 09:03:40;;;;;;;0.10;0.10;;;;;;;1.17;89.27;97704.38;5104880;27;20523;-73
2023/10/28 09:06:06;;;;;;;0.00;0.00;;;;;;;1.13;88.99;97699.53;5108122;28;20048;-73
2023/10/28 09:08:34;;;;;;;0.10;0.10;;;;;;;1.09;88.59;97697.63;5098871;28;20048;-79
2023/10/28 09:11:00;;;;;;;;;;;;;;;1.06;88.85;97690.09;5098690;28;20434;-79
2023/10/28 09:13:27;;;;;;;0.10;0.10;;;;;;;1.07;88.60;97681.75;5064998;28;19962;-79
2023/10/28 10:32:17;;;;;;;0.10;0.10;;;;;;;1.33;83.95;97584.91;6124208;22;1422485;-76
2023/10/28 10:34:45;;;;;;;0.00;0.00;;;;;;;1.27;84.77;97577.88;6198229;23;20048;-76
2023/10/28 10:37:20;;;;;;;;;;;;;;;1.27;85.13;97583.25;6206704;23;20060;-76
2023/10/28 10:39:47;;;;;;;0.10;0.10;;;;;;;1.25;85.30;97571.97;6146321;23;19920;-75
2023/10/28 10:42:13;;;;;;;0.00;0.00;;;;;;;1.25;85.25;97585.41;6134505;23;20025;-75
2023/10/28 10:44:41;;;;;;;0.10;0.10;;;;;;;1.12;85.90;97586.75;6185422;23;20017;-76
2023/10/28 10:47:08;;;;;;;0.10;0.10;;;;;;;1.00;86.54;97576.22;6156707;23;20025;-75
2023/10/28 10:49:40;;;;;;;0.10;0.10;;;;;;;1.00;87.00;97570.84;6182477;23;20517;-77
2023/10/28 10:52:08;;;;;;;0.10;0.10;;;;;;;0.97;87.49;97574.06;6186146;23;20020;-78
2023/10/28 10:54:36;;;;;;;0.03;0.03;;;;;;;0.91;87.65;97577.84;6156080;23;20562;-78
2023/10/28 10:57:04;;;;;;;0.10;0.10;;;;;;;0.83;88.41;97568.41;6155985;23;20025;-78
2023/10/28 10:59:33;;;;;;;0.10;0.10;;;;;;;0.91;88.51;97562.47;6184846;23;20021;-79
2023/10/28 11:02:01;;;;;;;0.10;0.10;;;;;;;0.92;88.54;97556.03;6185538;23;20020;-79
2023/10/28 11:04:28;;;;;;;0.00;0.00;;;;;;;1.01;88.51;97544.75;6187781;23;20020;-78
2023/10/28 11:06:56;;;;;;;0.08;0.08;;;;;;;1.04;88.25;97536.94;6184477;23;20021;-78
2023/10/28 11:09:22;;;;;;;;;;;;;;;1.09;88.60;97538.81;6155306;23;20027;-78
2023/10/28 11:11:49;;;;;;;0.00;0.00;;;;;;;1.08;87.99;97529.13;6168262;23;19927;-78
2023/10/28 11:14:16;;;;;;;0.00;0.00;;;;;;;1.01;88.04;97529.38;6187158;23;20024;-79
2023/10/28 11:16:43;;;;;;;0.07;0.07;;;;;;;0.98;88.12;97521.84;6156955;23;20404;-79
2023/10/28 11:19:10;;;;;;;0.00;0.00;;;;;;;1.01;88.29;97524.00;6186941;23;20036;-78
2023/10/28 11:21:37;;;;;;;0.10;0.10;;;;;;;1.03;88.31;97523.75;6188322;23;20460;-77
2023/10/28 11:24:07;;;;;;;0.43;0.38;;;;;;;1.07;88.41;97509.50;6151571;23;20071;-78
2023/10/28 11:26:34;;;;;;;0.05;0.05;;;;;;;1.16;88.65;97519.72;6177395;23;20120;-78
2023/10/28 11:29:01;;;;;;;0.00;0.00;;;;;;;1.08;88.42;97521.88;6147720;23;20017;-78
2023/10/28 11:31:31;;;;;;;0.00;0.00;;;;;;;1.07;89.15;97511.38;6174790;23;20047;-78
2023/10/28 11:33:58;;;;;;;0.00;0.00;;;;;;;1.01;88.66;97515.13;6174875;23;20016;-78
2023/10/28 11:36:26;;;;;;;0.00;0.00;;;;;;;0.98;88.54;97508.41;6178801;23;20025;-78
2023/10/28 11:38:55;;;;;;;0.00;0.00;;;;;;;0.95;88.70;97509.75;6176201;23;20057;-78
2023/10/28 11:41:24;;;;;;;0.10;0.10;;;;;;;0.89;89.07;97493.88;6149238;23;20028;-77
2023/10/28 11:43:52;;;;;;;0.00;0.00;;;;;;;0.83;88.88;97506.50;6179242;23;20476;-78
2023/10/28 11:46:18;;;;;;;0.00;0.00;;;;;;;0.82;89.92;97505.69;6151651;23;20079;-77
2023/10/28 11:48:47;;;;;;;0.10;0.10;;;;;;;0.89;90.43;97496.56;6176367;23;20095;-70
2023/10/28 11:51:14;;;;;;;0.10;0.10;;;;;;;0.96;90.26;97489.84;6150626;23;20024;-74
2023/10/28 11:53:44;;;;;;;0.10;0.10;;;;;;;0.97;90.30;97501.41;6159387;23;20492;-73
2023/10/28 11:56:11;;;;;;;0.00;0.00;;;;;;;0.91;90.22;97494.41;6144173;23;20047;-72
2023/10/28 11:58:38;;;;;;;0.10;0.10;;;;;;;0.85;90.58;97488.22;6168116;23;20025;-73
2023/10/28 12:01:05;;;;;;;;;;;;;;;0.79;90.81;97497.38;6143860;23;20356;-72
2023/10/28 12:03:33;;;;;;;0.03;0.03;;;;;;;0.65;91.56;97484.44;6149129;23;20372;-69
2023/10/28 12:05:59;;;;;;;0.00;0.00;;;;;;;0.59;92.96;97485.47;6149276;23;20021;-69
2023/10/28 12:08:25;;;;;;;0.10;0.10;;;;;;;0.52;93.81;97484.94;6150270;23;20112;-68
2023/10/28 12:10:51;;;;;;;0.10;0.10;;;;;;;0.50;93.85;97490.56;6177436;23;20028;-68
2023/10/28 12:13:18;;;;;;;0.10;0.10;;;;;;;0.49;94.01;97485.47;6148890;23;20352;-68
2023/10/28 12:15:45;;;;;;;0.00;0.00;;;;;;;0.52;94.12;97487.63;6121523;23;20027;-69
2023/10/28 12:18:12;;;;;;;0.00;0.00;;;;;;;0.47;94.16;97485.72;6140486;23;20025;-68
2023/10/28 12:20:38;;;;;;;0.00;0.00;;;;;;;0.49;94.44;97488.97;6130832;23;20020;-69
2023/10/28 12:23:05;;;;;;;0.00;0.00;;;;;;;0.54;94.15;97477.41;6176373;23;20209;-69
2023/10/28 12:25:31;;;;;;;0.00;0.00;;;;;;;0.48;94.37;97481.19;6148475;23;20017;-69
2023/10/28 12:27:58;;;;;;;0.00;0.00;;;;;;;0.48;94.50;97481.97;6173500;23;20408;-69
2023/10/28 12:30:24;;;;;;;0.00;0.00;;;;;;;0.57;94.61;97479.56;6175131;23;20025;-72
2023/10/28 12:32:51;;;;;;;0.10;0.10;;;;;;;0.62;94.63;97474.19;6157111;23;20074;-73
2023/10/28 12:35:19;;;;;;;0.00;0.00;;;;;;;0.65;94.63;97478.22;6099511;23;20029;-72
2023/10/28 12:37:45;;;;;;;0.10;0.10;;;;;;;0.60;94.28;97470.97;6147793;23;20044;-73
2023/10/28 12:40:12;;;;;;;0.10;0.10;;;;;;;0.59;94.53;97472.03;6183565;23;20456;-73
2023/10/28 12:42:38;;;;;;;0.00;0.00;;;;;;;0.65;94.86;97470.16;6168775;23;20025;-68
2023/10/28 12:45:09;;;;;;;0.03;0.03;;;;;;;0.65;94.69;97462.91;6148577;23;20283;-70
2023/10/28 12:47:35;;;;;;;0.00;0.00;;;;;;;0.67;94.41;97463.44;6174587;23;20028;-70
2023/10/28 12:50:04;;;;;;;0.10;0.10;;;;;;;0.66;94.72;97463.72;6168560;23;20368;-70
2023/10/28 12:52:33;;;;;;;0.10;0.10;;;;;;;0.63;94.69;97457.00;6154448;23;20735;-74
2023/10/28 12:55:03;;;;;;;0.00;0.00;;;;;;;0.63;94.81;97454.31;6185259;23;20140;-70
2023/10/28 12:57:31;;;;;;;0.10;0.10;;;;;;;0.66;94.98;97458.31;6177046;23;20522;-74
2023/10/28 12:59:57;;;;;;;0.10;0.10;;;;;;;0.62;94.91;97452.66;6177731;23;20020;-69
2023/10/28 13:02:25;;;;;;;0.00;0.00;;;;;;;0.51;95.14;97451.84;6175456;23;20028;-73
2023/10/28 13:04:51;;;;;;;0.08;0.08;;;;;;;0.57;96.00;97447.28;6148159;23;20116;-73
2023/10/28 13:07:21;;;;;;;0.00;0.00;;;;;;;0.58;96.01;97456.97;6152641;23;20025;-73
2023/10/28 13:09:48;;;;;;;0.00;0.00;;;;;;;0.53;95.81;97444.31;6157647;23;20025;-69
2023/10/28 13:12:15;;;;;;;0.10;0.10;;;;;;;0.51;96.02;97451.84;6169471;23;20017;-69
2023/10/28 13:14:41;;;;;;;0.10;0.10;;;;;;;0.45;96.29;97447.56;6176232;23;20029;-69
2023/10/28 13:17:07;;;;;;;0.10;0.10;;;;;;;0.41;96.40;97439.19;6179202;23;20025;-69
2023/10/28 13:19:34;;;;;;;0.00;0.00;;;;;;;0.47;96.58;97431.94;6173342;23;20021;-73
2023/10/28 13:22:01;;;;;;;0.10;0.10;;;;;;;0.46;96.46;97443.78;6185159;23;20017;-73
2023/10/28 13:24:29;;;;;;;0.10;0.10;;;;;;;0.42;96.51;97446.19;6119898;23;20104;-74
2023/10/28 13:26:56;;;;;;;0.00;0.00;;;;;;;0.42;97.11;97435.44;6146129;23;20460;-69
2023/10/28 13:29:24;;;;;;;0.10;0.10;;;;;;;0.40;97.31;97434.09;6125567;23;20025;-72